createdAt,value
2022-10-29T00:01:02.356Z,33.50
2022-10-29T00:03:44.309Z,34.70
2022-10-29T00:06:17.001Z,43.80
2022-10-29T00:08:49.897Z,45.80
2022-10-29T00:11:24.192Z,37.80
2022-10-29T00:14:01.881Z,47.10
2022-10-29T00:16:39.829Z,33.10
2022-10-29T00:19:12.776Z,34.30
2022-10-29T00:21:45.516Z,27.60
2022-10-29T00:24:20.054Z,27.80
2022-10-29T00:26:53.126Z,29.70
2022-10-29T00:29:25.647Z,37.10
2022-10-29T00:31:58.494Z,55.00
2022-10-29T00:34:31.991Z,33.80
2022-10-29T00:37:04.705Z,30.30
2022-10-29T00:39:37.680Z,26.90
2022-10-29T00:42:19.564Z,28.40
2022-10-29T00:44:52.573Z,26.60
2022-10-29T00:47:31.358Z,30.60
2022-10-29T00:50:12.286Z,29.50
2022-10-29T00:52:49.860Z,23.90
2022-10-29T00:55:23.276Z,29.10
2022-10-29T00:57:58.872Z,31.80
2022-10-29T01:00:31.924Z,29.60
2022-10-29T01:03:04.949Z,25.50
2022-10-29T01:05:38.695Z,28.70
2022-10-29T01:08:12.012Z,24.30
2022-10-29T01:11:06.389Z,28.30
2022-10-29T01:14:00.420Z,24.70
2022-10-29T01:17:05.458Z,22.10
2022-10-29T01:19:46.488Z,28.70
2022-10-29T01:22:31.425Z,33.00
2022-10-29T01:25:51.014Z,31.30
2022-10-29T01:28:32.430Z,37.60
2022-10-29T01:31:31.243Z,34.70
2022-10-29T01:34:14.473Z,38.30
2022-10-29T01:37:16.381Z,37.40
2022-10-29T01:39:57.081Z,39.50
2022-10-29T01:42:34.002Z,40.50
2022-10-29T01:45:14.918Z,45.90
2022-10-29T01:48:14.145Z,41.40
2022-10-29T01:50:51.796Z,38.30
2022-10-29T01:53:25.274Z,36.20
2022-10-29T01:55:58.223Z,39.50
2022-10-29T01:58:31.273Z,29.80
2022-10-29T02:01:36.857Z,33.40
2022-10-29T02:04:24.509Z,29.70
2022-10-29T02:07:46.876Z,26.30
2022-10-29T02:10:34.219Z,27.70
2022-10-29T02:13:07.176Z,27.20
2022-10-29T02:15:48.674Z,25.60
2022-10-29T02:18:22.114Z,24.10
2022-10-29T02:20:54.831Z,30.40
2022-10-29T02:23:27.784Z,25.30
2022-10-29T02:26:00.793Z,26.10
2022-10-29T02:28:33.715Z,28.00
2022-10-29T02:31:07.432Z,34.40
2022-10-29T02:33:40.478Z,31.10
2022-10-29T02:36:13.268Z,32.00
2022-10-29T02:38:46.163Z,25.90
2022-10-29T02:41:18.830Z,26.30
2022-10-29T02:43:51.687Z,27.60
2022-10-29T02:46:25.857Z,26.80
2022-10-29T02:48:58.267Z,27.50
2022-10-29T02:51:30.621Z,27.80
2022-10-29T02:54:03.514Z,28.30
2022-10-29T02:56:36.049Z,31.00
2022-10-29T02:59:10.850Z,33.60
2022-10-29T03:01:44.796Z,30.40
2022-10-29T03:04:17.347Z,26.90
2022-10-29T03:06:50.007Z,26.40
2022-10-29T03:09:22.357Z,39.90
2022-10-29T03:11:54.507Z,36.60
2022-10-29T03:14:26.785Z,30.30
2022-10-29T03:16:59.117Z,26.20
2022-10-29T03:19:31.733Z,31.20
2022-10-29T03:22:04.244Z,25.60
2022-10-29T03:24:36.817Z,27.10
2022-10-29T03:27:09.423Z,29.80
2022-10-29T03:29:41.827Z,28.80
2022-10-29T03:32:14.389Z,24.80
2022-10-29T03:34:46.826Z,28.20
2022-10-29T03:37:19.186Z,26.70
2022-10-29T03:39:51.532Z,29.90
2022-10-29T03:42:23.786Z,27.50
2022-10-29T03:44:56.517Z,27.40
2022-10-29T03:47:32.484Z,27.90
2022-10-29T03:50:04.942Z,27.70
2022-10-29T03:52:37.931Z,25.60
2022-10-29T03:55:11.068Z,25.30
2022-10-29T03:57:43.493Z,26.80
2022-10-29T04:00:17.036Z,29.70
2022-10-29T04:02:49.878Z,24.40
2022-10-29T04:05:22.400Z,27.00
2022-10-29T04:07:55.002Z,29.40
2022-10-29T04:10:27.972Z,25.00
2022-10-29T04:13:00.285Z,26.60
2022-10-29T04:15:32.894Z,27.60
2022-10-29T04:18:05.822Z,26.40
2022-10-29T04:20:54.322Z,27.80
2022-10-29T04:29:24.903Z,29.40
2022-10-29T04:31:57.813Z,31.30
2022-10-29T04:34:30.756Z,32.90
2022-10-29T04:37:04.176Z,44.30
2022-10-29T04:39:37.501Z,47.50
2022-10-29T04:42:10.866Z,48.10
2022-10-29T04:44:44.421Z,50.20
2022-10-29T04:47:17.557Z,46.10
2022-10-29T04:49:50.873Z,44.80
2022-10-29T04:52:23.850Z,41.60
2022-10-29T04:54:56.573Z,50.40
2022-10-29T04:57:28.946Z,46.30
2022-10-29T05:02:32.907Z,37.30
2022-10-29T05:05:05.819Z,31.80
2022-10-29T05:07:38.267Z,34.10
2022-10-29T05:10:11.294Z,27.40
2022-10-29T05:12:43.705Z,29.10
2022-10-29T05:15:16.403Z,29.90
2022-10-29T05:17:49.226Z,34.10
2022-10-29T05:20:21.761Z,34.40
2022-10-29T05:23:05.143Z,42.50
2022-10-29T05:25:39.475Z,45.20
2022-10-29T05:28:21.514Z,63.60
2022-10-29T05:30:54.774Z,42.90
2022-10-29T05:33:27.806Z,48.70
2022-10-29T05:36:05.168Z,44.50
2022-10-29T05:38:38.983Z,46.40
2022-10-29T05:41:11.772Z,52.50
2022-10-29T05:43:44.357Z,45.20
2022-10-29T05:46:17.016Z,39.50
2022-10-29T05:48:49.640Z,39.00
2022-10-29T05:51:21.958Z,41.70
2022-10-29T05:53:54.174Z,40.70
2022-10-29T05:56:26.862Z,51.00
2022-10-29T05:58:59.498Z,41.80
2022-10-29T06:01:32.748Z,45.40
2022-10-29T06:04:05.799Z,51.00
2022-10-29T06:06:39.287Z,46.20
2022-10-29T06:09:12.242Z,42.20
2022-10-29T06:11:45.155Z,43.10
2022-10-29T06:14:17.622Z,44.40
2022-10-29T06:16:49.935Z,46.30
2022-10-29T06:19:22.548Z,51.20
2022-10-29T06:21:57.858Z,43.60
2022-10-29T06:24:34.201Z,41.60
2022-10-29T06:27:07.266Z,41.40
2022-10-29T06:29:40.329Z,42.80
2022-10-29T06:32:12.897Z,44.40
2022-10-29T06:34:45.368Z,44.40
2022-10-29T06:37:18.171Z,46.00
2022-10-29T06:39:50.765Z,43.30
2022-10-29T06:42:23.220Z,45.90
2022-10-29T06:44:56.112Z,43.50
2022-10-29T06:47:28.422Z,49.00
2022-10-29T06:50:00.905Z,47.10
2022-10-29T06:52:33.876Z,53.80
2022-10-29T06:55:07.976Z,55.20
2022-10-29T06:57:42.522Z,47.30
2022-10-29T07:00:15.301Z,57.00
2022-10-29T07:02:47.861Z,58.00
2022-10-29T07:05:21.152Z,58.80
2022-10-29T07:07:58.121Z,92.40
2022-10-29T07:10:32.527Z,102.90
2022-10-29T07:13:05.763Z,125.20
2022-10-29T07:15:38.916Z,97.10
2022-10-29T07:18:13.088Z,96.80
2022-10-29T07:20:47.133Z,76.20
2022-10-29T07:23:20.038Z,73.30
2022-10-29T07:25:55.541Z,52.50
2022-10-29T07:28:28.542Z,42.90
2022-10-29T07:31:04.652Z,37.30
2022-10-29T07:33:37.476Z,41.40
2022-10-29T07:36:10.411Z,36.10
2022-10-29T07:38:43.195Z,32.20
2022-10-29T07:41:16.007Z,35.40
2022-10-29T07:43:48.888Z,30.70
2022-10-29T07:46:21.806Z,32.10
2022-10-29T07:48:54.578Z,32.80
2022-10-29T07:51:27.595Z,36.30
2022-10-29T07:54:00.411Z,36.10
2022-10-29T07:56:33.399Z,29.90
2022-10-29T07:59:06.641Z,37.10
2022-10-29T08:01:40.243Z,36.80
2022-10-29T08:04:13.833Z,36.30
2022-10-29T08:06:46.855Z,34.10
2022-10-29T08:09:19.797Z,39.20
2022-10-29T08:11:52.756Z,37.90
2022-10-29T08:14:25.857Z,41.40
2022-10-29T08:16:58.666Z,38.00
2022-10-29T08:19:32.140Z,35.60
2022-10-29T08:22:04.995Z,37.40
2022-10-29T08:24:38.003Z,39.40
2022-10-29T08:27:10.479Z,39.40
2022-10-29T08:29:43.264Z,37.70
2022-10-29T08:32:15.925Z,32.50
2022-10-29T08:34:48.833Z,37.20
2022-10-29T08:37:21.457Z,31.40
2022-10-29T08:39:54.067Z,38.60
2022-10-29T08:43:06.731Z,32.00
2022-10-29T08:48:37.730Z,33.90
2022-10-29T08:51:13.821Z,42.10
2022-10-29T08:54:10.331Z,37.20
2022-10-29T08:56:57.132Z,32.80
2022-10-29T08:59:35.826Z,33.20
2022-10-29T09:02:17.574Z,29.80
2022-10-29T09:04:50.893Z,32.00
2022-10-29T09:07:38.319Z,31.00
2022-10-29T09:10:34.863Z,35.10
2022-10-29T09:13:28.956Z,31.20
2022-10-29T09:16:21.841Z,32.80
2022-10-29T09:21:52.950Z,30.50
2022-10-29T09:24:47.944Z,33.50
2022-10-29T09:27:32.346Z,36.10
2022-10-29T09:30:19.551Z,42.20
2022-10-29T09:33:07.855Z,35.50
2022-10-29T09:35:46.357Z,31.50
2022-10-29T09:38:38.265Z,36.20
2022-10-29T09:41:14.011Z,38.10
2022-10-29T09:43:55.956Z,34.80
2022-10-29T09:46:48.041Z,30.00
2022-10-29T09:49:41.219Z,30.40
2022-10-29T09:52:20.524Z,32.90
2022-10-29T09:54:56.253Z,37.60
2022-10-29T09:57:32.523Z,30.60
2022-10-29T10:00:18.195Z,33.10
2022-10-29T10:03:14.876Z,31.80
2022-10-29T10:06:08.174Z,27.20
2022-10-29T10:09:06.844Z,28.80
2022-10-29T10:11:45.983Z,29.50
2022-10-29T10:14:27.907Z,31.40
2022-10-29T10:17:04.670Z,27.40
2022-10-29T10:19:44.117Z,26.60
2022-10-29T10:22:25.239Z,25.20
2022-10-29T10:24:58.163Z,31.50
2022-10-29T10:27:34.306Z,33.80
2022-10-29T10:30:06.989Z,30.10
2022-10-29T10:32:40.049Z,26.00
2022-10-29T10:35:33.102Z,22.70
2022-10-29T10:38:12.505Z,26.40
2022-10-29T10:40:46.144Z,25.10
2022-10-29T10:43:25.691Z,29.10
2022-10-29T10:46:05.972Z,27.20
2022-10-29T10:48:38.810Z,30.70
2022-10-29T10:51:35.369Z,36.30
2022-10-29T10:54:32.166Z,32.60
2022-10-29T10:57:17.507Z,33.30
2022-10-29T11:00:07.362Z,32.50
2022-10-29T11:02:55.320Z,33.60
2022-10-29T11:06:03.795Z,40.10
2022-10-29T11:08:54.454Z,45.00
2022-10-29T11:11:33.777Z,50.60
2022-10-29T11:14:35.222Z,54.40
2022-10-29T11:17:22.136Z,31.30
2022-10-29T11:19:58.016Z,25.10
2022-10-29T11:22:53.903Z,16.60
2022-10-29T11:25:43.667Z,17.70
2022-10-29T11:28:27.686Z,18.90
2022-10-29T11:31:12.265Z,17.50
2022-10-29T11:33:49.813Z,15.30
2022-10-29T11:36:27.977Z,14.50
2022-10-29T11:39:00.719Z,14.10
2022-10-29T11:42:03.106Z,16.70
2022-10-29T11:47:35.423Z,12.60
2022-10-29T11:50:28.342Z,11.70
2022-10-29T11:53:06.384Z,10.20
2022-10-29T11:55:43.709Z,11.50
2022-10-29T11:58:53.201Z,11.30
2022-10-29T12:01:48.470Z,9.90
2022-10-29T12:04:33.566Z,11.90
2022-10-29T12:07:08.271Z,9.90
2022-10-29T12:10:16.412Z,9.90
2022-10-29T12:13:17.126Z,10.00
2022-10-29T12:16:10.052Z,11.00
2022-10-29T12:19:39.594Z,9.90
2022-10-29T12:22:35.810Z,10.90
2022-10-29T12:25:34.121Z,11.20
2022-10-29T12:28:19.842Z,13.60
2022-10-29T12:31:17.735Z,11.10
2022-10-29T12:34:16.189Z,11.80
2022-10-29T12:37:01.000Z,9.30
2022-10-29T12:39:48.971Z,13.60
2022-10-29T12:42:28.484Z,13.40
2022-10-29T12:45:19.635Z,12.90
2022-10-29T12:48:23.398Z,12.60
2022-10-29T12:51:11.037Z,12.00
2022-10-29T12:53:58.943Z,10.90
2022-10-29T12:56:32.993Z,11.70
2022-10-29T12:59:25.985Z,12.30
2022-10-29T13:02:19.138Z,13.40
2022-10-29T13:05:11.292Z,11.50
2022-10-29T13:07:50.180Z,15.60
2022-10-29T13:10:32.360Z,14.90
2022-10-29T13:16:02.965Z,13.00
2022-10-29T13:18:49.958Z,13.90
2022-10-29T13:21:58.102Z,13.60
2022-10-29T13:24:32.503Z,15.10
2022-10-29T13:27:14.399Z,14.20
2022-10-29T13:32:40.460Z,14.50
2022-10-29T13:35:21.706Z,17.20
2022-10-29T13:38:13.088Z,19.50
2022-10-29T13:41:06.491Z,24.90
2022-10-29T13:43:40.450Z,22.90
2022-10-29T13:46:17.840Z,22.10
2022-10-29T13:48:53.025Z,20.80
2022-10-29T13:51:36.695Z,22.50
2022-10-29T13:54:22.232Z,20.10
2022-10-29T13:57:11.087Z,21.70
2022-10-29T14:00:00.480Z,17.40
2022-10-29T14:02:40.679Z,16.00
2022-10-29T14:05:16.157Z,17.80
2022-10-29T14:08:09.447Z,15.10
2022-10-29T14:10:47.493Z,16.10
2022-10-29T14:13:24.619Z,17.80
2022-10-29T14:16:10.097Z,17.90
2022-10-29T14:18:44.474Z,16.90
2022-10-29T14:21:30.038Z,16.60
2022-10-29T14:24:04.573Z,18.80
2022-10-29T14:26:42.628Z,20.20
2022-10-29T14:29:26.109Z,20.40
2022-10-29T14:32:19.094Z,28.80
2022-10-29T14:34:53.389Z,29.80
2022-10-29T14:37:42.821Z,23.40
2022-10-29T14:40:25.360Z,27.70
2022-10-29T14:42:59.158Z,21.60
2022-10-29T14:45:34.141Z,23.30
2022-10-29T14:48:17.860Z,20.60
2022-10-29T14:50:56.860Z,16.60
2022-10-29T14:53:36.609Z,17.10
2022-10-29T14:56:20.162Z,20.40
2022-10-29T14:58:53.331Z,18.80
2022-10-29T15:01:26.769Z,20.30
2022-10-29T15:04:03.296Z,28.70
2022-10-29T15:06:37.011Z,44.20
2022-10-29T15:09:21.771Z,42.40
2022-10-29T15:12:09.443Z,31.60
2022-10-29T15:14:54.310Z,28.30
2022-10-29T15:17:32.954Z,25.40
2022-10-29T15:20:21.213Z,27.80
2022-10-29T15:23:01.132Z,25.60
2022-10-29T15:25:37.948Z,39.50
2022-10-29T15:31:42.291Z,29.20
2022-10-29T15:34:23.505Z,26.50
2022-10-29T15:37:01.165Z,30.60
2022-10-29T15:39:59.040Z,31.00
2022-10-29T15:42:34.022Z,50.10
2022-10-29T15:45:18.584Z,52.70
2022-10-29T15:47:52.868Z,41.00
2022-10-29T15:50:31.516Z,35.80
2022-10-29T15:53:08.235Z,36.10
2022-10-29T15:55:40.779Z,40.20
2022-10-29T15:58:18.562Z,72.50
2022-10-29T16:00:51.526Z,62.90
2022-10-29T16:03:27.015Z,60.10
2022-10-29T16:06:04.478Z,47.40
2022-10-29T16:08:52.908Z,53.30
2022-10-29T16:11:26.362Z,42.20
2022-10-29T16:14:01.184Z,29.80
2022-10-29T16:16:34.367Z,32.80
2022-10-29T16:19:09.147Z,26.80
2022-10-29T16:21:42.435Z,30.20
2022-10-29T16:24:18.599Z,23.20
2022-10-29T16:26:52.163Z,18.30
2022-10-29T16:29:25.485Z,19.60
2022-10-29T16:31:58.600Z,17.30
2022-10-29T16:34:31.420Z,15.20
2022-10-29T16:37:04.859Z,16.10
2022-10-29T16:39:39.085Z,16.90
2022-10-29T16:42:35.339Z,16.20
2022-10-29T16:45:10.734Z,17.70
2022-10-29T16:47:43.872Z,16.10
2022-10-29T16:50:23.962Z,18.10
2022-10-29T16:53:12.284Z,17.90
2022-10-29T16:55:46.096Z,16.40
2022-10-29T16:58:20.217Z,18.00
2022-10-29T17:00:53.331Z,14.60
2022-10-29T17:03:26.621Z,19.40
2022-10-29T17:06:04.059Z,16.90
2022-10-29T17:08:38.216Z,17.00
2022-10-29T17:11:11.106Z,14.60
2022-10-29T17:13:44.769Z,16.30
2022-10-29T17:16:19.398Z,17.10
2022-10-29T17:18:52.516Z,16.50
2022-10-29T17:21:26.306Z,17.80
2022-10-29T17:24:03.714Z,15.20
2022-10-29T17:26:43.043Z,17.10
2022-10-29T17:29:17.355Z,17.40
2022-10-29T17:31:51.133Z,15.40
2022-10-29T17:34:24.681Z,17.40
2022-10-29T17:36:57.959Z,14.70
2022-10-29T17:39:31.757Z,14.50
2022-10-29T17:42:05.486Z,14.80
2022-10-29T17:44:38.949Z,21.30
2022-10-29T17:47:15.410Z,18.40
2022-10-29T17:49:52.720Z,15.90
2022-10-29T17:52:25.888Z,16.70
2022-10-29T17:54:58.817Z,19.80
2022-10-29T17:57:31.683Z,15.90
2022-10-29T18:00:05.007Z,17.40
2022-10-29T18:02:37.998Z,15.70
2022-10-29T18:05:11.464Z,16.30
2022-10-29T18:07:44.622Z,14.90
2022-10-29T18:10:18.486Z,18.20
2022-10-29T18:12:51.952Z,16.80
2022-10-29T18:15:24.947Z,17.00
2022-10-29T18:18:01.321Z,15.90
2022-10-29T18:20:34.123Z,15.50
2022-10-29T18:23:06.934Z,18.00
2022-10-29T18:25:40.043Z,15.20
2022-10-29T18:28:13.544Z,20.10
2022-10-29T18:30:46.771Z,16.10
2022-10-29T18:33:19.843Z,14.10
2022-10-29T18:35:56.023Z,14.00
2022-10-29T18:38:30.924Z,15.70
2022-10-29T18:41:04.272Z,12.80
2022-10-29T18:43:37.729Z,14.00
2022-10-29T18:46:11.425Z,14.70
2022-10-29T18:48:47.507Z,13.50
2022-10-29T18:51:26.154Z,14.10
2022-10-29T18:54:00.836Z,15.80
2022-10-29T18:56:38.084Z,13.90
2022-10-29T18:59:11.945Z,17.20
2022-10-29T19:01:44.695Z,16.40
2022-10-29T19:04:18.276Z,16.50
2022-10-29T19:06:51.263Z,19.50
2022-10-29T19:09:24.012Z,21.10
2022-10-29T19:11:59.416Z,19.10
2022-10-29T19:14:32.489Z,19.90
2022-10-29T19:17:05.136Z,18.70
2022-10-29T19:19:38.318Z,18.10
2022-10-29T19:22:10.993Z,17.50
2022-10-29T19:24:43.763Z,19.20
2022-10-29T19:27:16.527Z,17.80
2022-10-29T19:29:49.538Z,22.50
2022-10-29T19:32:22.470Z,27.50
2022-10-29T19:34:55.332Z,23.20
2022-10-29T19:37:27.955Z,21.40
2022-10-29T19:40:01.078Z,23.70
2022-10-29T19:42:34.198Z,34.10
2022-10-29T19:45:07.694Z,29.00
2022-10-29T19:47:40.601Z,20.40
2022-10-29T19:50:13.523Z,27.70
2022-10-29T19:52:46.505Z,21.70
2022-10-29T19:55:19.046Z,28.40
2022-10-29T19:57:51.856Z,25.40
2022-10-29T20:00:25.084Z,23.20
2022-10-29T20:02:58.543Z,22.00
2022-10-29T20:08:15.666Z,20.50
2022-10-29T20:10:59.859Z,19.80
2022-10-29T20:13:34.555Z,20.10
2022-10-29T20:16:17.458Z,17.70
2022-10-29T20:18:50.786Z,17.70
2022-10-29T20:21:23.815Z,19.80
2022-10-29T20:23:57.787Z,17.50
2022-10-29T20:26:31.449Z,21.50
2022-10-29T20:29:04.499Z,17.70
2022-10-29T20:31:41.245Z,19.30
2022-10-29T20:34:15.649Z,18.40
2022-10-29T20:36:52.005Z,22.10
2022-10-29T20:39:25.537Z,19.90
2022-10-29T20:42:00.025Z,16.80
2022-10-29T20:44:32.917Z,17.40
2022-10-29T20:47:06.063Z,17.60
2022-10-29T20:49:39.051Z,18.00
2022-10-29T20:52:12.052Z,18.80
2022-10-29T20:54:44.816Z,27.00
2022-10-29T20:57:17.764Z,28.90
2022-10-29T20:59:50.353Z,27.60
2022-10-29T21:02:23.340Z,23.80
2022-10-29T21:04:56.514Z,22.50
2022-10-29T21:07:29.858Z,18.10
2022-10-29T21:10:02.502Z,17.80
2022-10-29T21:12:35.326Z,18.10
2022-10-29T21:15:08.766Z,16.00
2022-10-29T21:17:41.888Z,15.60
2022-10-29T21:20:15.124Z,15.40
2022-10-29T21:22:48.070Z,17.10
2022-10-29T21:25:20.907Z,21.10
2022-10-29T21:27:56.981Z,16.90
2022-10-29T21:30:30.977Z,16.90
2022-10-29T21:33:03.837Z,18.30
2022-10-29T21:35:37.108Z,15.00
2022-10-29T21:38:10.496Z,14.80
2022-10-29T21:40:44.779Z,14.80
2022-10-29T21:43:17.958Z,13.60
2022-10-29T21:45:51.863Z,15.40
2022-10-29T21:48:27.321Z,16.60
2022-10-29T21:51:18.597Z,17.10
2022-10-29T21:53:51.463Z,14.80
2022-10-29T21:56:24.808Z,17.10
2022-10-29T21:58:57.485Z,14.20
2022-10-29T22:01:30.855Z,13.40
2022-10-29T22:04:04.282Z,16.60
2022-10-29T22:06:37.236Z,16.50
2022-10-29T22:09:12.291Z,16.30
2022-10-29T22:11:44.930Z,16.40
2022-10-29T22:14:17.653Z,17.10
2022-10-29T22:16:50.393Z,14.40
2022-10-29T22:19:22.976Z,15.80
2022-10-29T22:21:57.751Z,15.80
2022-10-29T22:24:30.791Z,17.90
2022-10-29T22:27:03.961Z,14.90
2022-10-29T22:29:36.827Z,15.70
2022-10-29T22:32:09.769Z,22.80
2022-10-29T22:34:42.610Z,16.10
2022-10-29T22:37:15.663Z,17.70
2022-10-29T22:39:48.434Z,14.80
2022-10-29T22:42:21.235Z,18.20
2022-10-29T22:44:53.747Z,15.50
2022-10-29T22:47:26.222Z,14.70
2022-10-29T22:49:59.811Z,15.80
2022-10-29T22:52:37.982Z,15.10
2022-10-29T22:55:11.241Z,17.20
2022-10-29T22:57:43.759Z,15.00
2022-10-29T23:00:17.458Z,15.90
2022-10-29T23:02:50.176Z,15.30
2022-10-29T23:05:22.666Z,17.70
2022-10-29T23:07:55.290Z,14.10
2022-10-29T23:10:28.180Z,17.90
2022-10-29T23:13:00.614Z,16.00
2022-10-29T23:15:34.382Z,15.60
2022-10-29T23:18:06.934Z,20.20
2022-10-29T23:20:39.581Z,18.50
2022-10-29T23:23:12.451Z,18.10
2022-10-29T23:25:45.035Z,17.70
2022-10-29T23:28:17.501Z,16.20
2022-10-29T23:30:55.872Z,15.20
2022-10-29T23:33:29.166Z,17.60
2022-10-29T23:36:11.982Z,17.10
2022-10-29T23:38:45.033Z,18.60
2022-10-29T23:41:17.667Z,16.70
2022-10-29T23:43:50.269Z,16.10
2022-10-29T23:46:23.072Z,17.20
2022-10-29T23:48:55.532Z,18.40
2022-10-29T23:51:28.274Z,16.30
2022-10-29T23:54:01.375Z,17.70
2022-10-29T23:56:34.279Z,17.40
2022-10-29T23:59:07.068Z,15.60
